Time;durP1;ratioP1;P1;durP2;ratioP2;P2;SDS_P1;SDS_P2;PMS_P1;PMS_P2;Temp;Humidity;BMP_temperature;BMP_pressure;BME280_temperature;BME280_humidity;BME280_pressure;Samples;Min_cycle;Max_cycle;Signal;HPM_P1;HPM_P2
2022/04/11 03:00:43;;;;;;;1.50;1.10;;;15.90;46.40;;;;;;6001835;23;45840;-65
2022/04/11 03:03:10;;;;;;;1.75;1.23;;;15.90;46.30;;;;;;4937010;28;45595;-63
2022/04/11 03:05:36;;;;;;;1.75;1.30;;;15.90;46.30;;;;;;4951011;28;45293;-64
2022/04/11 03:08:02;;;;;;;1.70;1.20;;;15.90;46.30;;;;;;4951631;28;46499;-63
2022/04/11 03:10:28;;;;;;;1.75;1.40;;;15.90;46.30;;;;;;4947139;28;46025;-63
2022/04/11 03:12:53;;;;;;;1.52;1.17;;;15.90;46.30;;;;;;4932162;28;46097;-63
2022/04/11 03:15:19;;;;;;;2.13;1.27;;;15.90;46.90;;;;;;4906618;28;44678;-63
2022/04/11 03:17:45;;;;;;;1.67;1.35;;;15.90;46.40;;;;;;4940639;28;45485;-62
2022/04/11 03:20:10;;;;;;;1.45;1.00;;;15.80;46.40;;;;;;4937678;28;46747;-63
2022/04/11 03:22:36;;;;;;;1.48;1.15;;;15.90;46.40;;;;;;4919855;28;45091;-63
2022/04/11 03:25:02;;;;;;;1.05;0.95;;;15.90;46.40;;;;;;4924475;28;45294;-62
2022/04/11 03:27:28;;;;;;;3.33;1.10;;;15.90;46.40;;;;;;4941194;28;45152;-62
2022/04/11 03:29:54;;;;;;;1.88;1.13;;;15.90;46.50;;;;;;4952680;28;46239;-63
2022/04/11 03:32:20;;;;;;;2.45;1.48;;;15.90;46.50;;;;;;4936097;28;45424;-63
2022/04/11 03:34:45;;;;;;;1.25;1.13;;;15.90;46.50;;;;;;4938235;28;46184;-62
2022/04/11 03:37:12;;;;;;;1.90;1.40;;;15.80;46.40;;;;;;4939132;28;44723;-63
2022/04/11 03:39:37;;;;;;;1.58;1.20;;;15.80;46.40;;;;;;4940029;28;46197;-63
2022/04/11 03:42:03;;;;;;;1.80;1.27;;;15.80;46.40;;;;;;4919564;28;45700;-63
2022/04/11 03:44:29;;;;;;;2.08;1.50;;;15.80;46.40;;;;;;4940354;28;45576;-63
2022/04/11 03:46:54;;;;;;;1.75;1.35;;;15.80;46.30;;;;;;4938241;28;45421;-63
2022/04/11 03:49:20;;;;;;;1.98;1.20;;;15.80;46.40;;;;;;4922288;28;45609;-63
2022/04/11 03:51:45;;;;;;;1.95;1.45;;;15.80;46.40;;;;;;4938023;28;45769;-63
2022/04/11 03:54:11;;;;;;;1.88;1.30;;;15.80;46.40;;;;;;4939342;28;45334;-63
2022/04/11 03:56:37;;;;;;;1.77;1.25;;;15.80;46.40;;;;;;4926795;28;45345;-63
2022/04/11 03:59:02;;;;;;;1.42;1.20;;;15.80;46.40;;;;;;4937517;28;45765;-62
2022/04/11 04:01:28;;;;;;;1.70;1.25;;;15.80;46.50;;;;;;4929846;28;45819;-62
2022/04/11 04:03:53;;;;;;;1.63;1.20;;;15.80;46.00;;;;;;4939495;28;45281;-63
2022/04/11 04:06:20;;;;;;;1.90;1.42;;;15.80;46.50;;;;;;4935291;28;44901;-63
2022/04/11 04:08:45;;;;;;;1.52;1.20;;;15.70;46.50;;;;;;4907872;28;46792;-63
2022/04/11 04:11:11;;;;;;;1.98;1.42;;;15.70;46.40;;;;;;4937438;28;46142;-63
2022/04/11 04:13:36;;;;;;;1.55;1.30;;;15.70;46.50;;;;;;4934606;28;45115;-63
2022/04/11 04:16:02;;;;;;;2.17;1.42;;;15.70;46.40;;;;;;4938894;28;45254;-63
2022/04/11 04:18:28;;;;;;;1.98;1.20;;;15.70;46.50;;;;;;4937910;28;45313;-62
2022/04/11 04:20:54;;;;;;;1.85;1.20;;;15.70;46.50;;;;;;4936236;28;45810;-63
2022/04/11 04:23:19;;;;;;;1.52;1.13;;;15.70;46.50;;;;;;4939738;28;45356;-63
2022/04/11 04:25:45;;;;;;;1.90;1.48;;;15.70;46.50;;;;;;4925649;28;45749;-63
2022/04/11 04:28:10;;;;;;;1.92;1.27;;;15.70;46.50;;;;;;4920727;28;46123;-63
2022/04/11 04:30:36;;;;;;;1.60;1.50;;;15.70;46.50;;;;;;4921669;28;45908;-63
2022/04/11 04:33:02;;;;;;;1.75;1.35;;;15.70;46.60;;;;;;4942890;28;44981;-64
2022/04/11 04:35:27;;;;;;;1.88;1.27;;;15.70;46.50;;;;;;4925683;28;45291;-64
2022/04/11 04:37:53;;;;;;;2.42;1.40;;;15.70;46.50;;;;;;4937461;28;45698;-64
2022/04/11 04:40:19;;;;;;;1.30;1.20;;;15.70;46.50;;;;;;4938881;28;45132;-63
2022/04/11 04:42:44;;;;;;;1.45;1.33;;;15.70;46.50;;;;;;4910058;28;45736;-63
2022/04/11 04:45:10;;;;;;;1.92;1.50;;;15.70;46.50;;;;;;4941115;28;44875;-64
2022/04/11 04:47:36;;;;;;;1.48;1.27;;;15.60;46.50;;;;;;4935819;28;45364;-63
2022/04/11 04:50:01;;;;;;;1.50;1.30;;;15.60;46.50;;;;;;4942247;28;44789;-64
2022/04/11 04:52:27;;;;;;;2.20;1.35;;;15.60;46.50;;;;;;4937121;28;44849;-63
2022/04/11 04:54:52;;;;;;;1.58;1.20;;;15.70;46.50;;;;;;4939047;28;46063;-64
2022/04/11 04:57:18;;;;;;;2.03;1.40;;;15.70;46.50;;;;;;4937579;28;45295;-63
2022/04/11 04:59:44;;;;;;;1.55;1.17;;;15.60;46.40;;;;;;4936359;28;45672;-64
2022/04/11 05:02:09;;;;;;;2.10;1.40;;;15.60;46.50;;;;;;4934649;28;45254;-63
2022/04/11 05:04:35;;;;;;;1.90;1.33;;;15.60;46.50;;;;;;4940183;28;45556;-63
2022/04/11 05:07:00;;;;;;;1.92;1.25;;;15.60;46.50;;;;;;4934278;28;45471;-63
2022/04/11 05:09:26;;;;;;;1.48;1.23;;;15.60;46.50;;;;;;4937748;28;45499;-63
2022/04/11 05:11:51;;;;;;;1.83;1.30;;;15.60;46.50;;;;;;4920921;28;45581;-64
2022/04/11 05:14:17;;;;;;;1.60;1.17;;;15.60;46.50;;;;;;4920808;28;44956;-63
2022/04/11 05:16:43;;;;;;;1.65;1.20;;;15.60;46.50;;;;;;4902853;28;47172;-64
2022/04/11 05:19:09;;;;;;;1.65;1.30;;;15.60;46.60;;;;;;4937429;28;45472;-64
2022/04/11 05:21:34;;;;;;;2.03;1.52;;;15.50;46.60;;;;;;4937640;28;45614;-64
2022/04/11 05:24:00;;;;;;;2.03;1.63;;;15.60;46.60;;;;;;4934234;28;45728;-64
2022/04/11 05:26:25;;;;;;;1.80;1.30;;;15.50;46.60;;;;;;4937845;28;46160;-64
2022/04/11 05:28:51;;;;;;;2.35;1.52;;;15.60;46.50;;;;;;4921485;28;45700;-64
2022/04/11 05:31:17;;;;;;;1.52;1.25;;;15.60;46.60;;;;;;4917222;28;45430;-64
2022/04/11 05:33:43;;;;;;;1.85;1.40;;;15.50;46.60;;;;;;4936614;28;45639;-63
2022/04/11 05:36:08;;;;;;;3.03;1.40;;;15.60;46.50;;;;;;4947444;28;45666;-64
2022/04/11 05:38:34;;;;;;;2.17;1.50;;;15.60;46.50;;;;;;4938317;28;44800;-63
2022/04/11 05:41:00;;;;;;;2.40;1.58;;;15.50;46.50;;;;;;4920004;28;45729;-63
2022/04/11 05:43:25;;;;;;;2.33;1.55;;;15.50;46.50;;;;;;4934976;28;45697;-63
2022/04/11 05:45:51;;;;;;;1.67;1.33;;;15.50;46.50;;;;;;4920728;28;45665;-64
2022/04/11 05:48:17;;;;;;;2.20;1.60;;;15.60;46.40;;;;;;4938380;28;45872;-64
2022/04/11 05:50:42;;;;;;;2.40;1.52;;;15.60;46.40;;;;;;4919174;28;45623;-64
2022/04/11 05:53:08;;;;;;;2.35;1.50;;;15.60;46.40;;;;;;4938427;28;46170;-64
2022/04/11 05:55:33;;;;;;;2.25;1.38;;;15.60;46.30;;;;;;4919119;28;45938;-64
2022/04/11 05:57:59;;;;;;;1.70;1.30;;;15.60;46.30;;;;;;4916669;28;44790;-65
2022/04/11 06:00:25;;;;;;;1.38;1.27;;;15.60;46.20;;;;;;4939373;28;45446;-64
2022/04/11 06:02:50;;;;;;;1.70;1.20;;;15.70;46.20;;;;;;4935209;28;46318;-64
2022/04/11 06:05:16;;;;;;;2.03;1.40;;;15.80;46.00;;;;;;4935788;28;46084;-59
2022/04/11 06:07:42;;;;;;;2.78;1.77;;;16.00;45.70;;;;;;4935897;28;45454;-59
2022/04/11 06:10:08;;;;;;;2.05;1.45;;;16.50;44.90;;;;;;4938067;28;45179;-60
2022/04/11 06:12:34;;;;;;;4.30;1.50;;;16.70;44.30;;;;;;4917923;28;45946;-61
2022/04/11 06:15:00;;;;;;;2.45;1.40;;;16.90;43.90;;;;;;4936308;28;45894;-60
2022/04/11 06:17:25;;;;;;;2.58;1.60;;;16.80;43.60;;;;;;4936346;28;44839;-60
2022/04/11 06:19:55;;;;;;;2.08;1.40;;;16.70;43.80;;;;;;4938713;28;45268;-60
2022/04/11 06:22:21;;;;;;;3.13;1.70;;;16.70;43.90;;;;;;4939126;28;45249;-60
2022/04/11 06:24:46;;;;;;;1.92;1.70;;;16.70;43.90;;;;;;4940525;28;46812;-60
2022/04/11 06:27:12;;;;;;;3.33;1.30;;;16.80;44.00;;;;;;4938864;28;45255;-60
2022/04/11 06:29:38;;;;;;;2.05;1.48;;;16.90;44.10;;;;;;4938808;28;45710;-58
2022/04/11 06:32:04;;;;;;;2.40;1.75;;;16.90;44.00;;;;;;4940074;28;45447;-62
2022/04/11 06:34:33;;;;;;;2.28;1.58;;;17.00;43.90;;;;;;4941146;28;47117;-58
2022/04/11 06:36:59;;;;;;;2.38;1.38;;;17.10;43.80;;;;;;4921182;28;45292;-62
2022/04/11 06:39:24;;;;;;;1.90;1.45;;;17.20;43.80;;;;;;4941075;28;45511;-61
2022/04/11 06:41:50;;;;;;;2.25;1.40;;;17.30;43.80;;;;;;4940212;28;45386;-62
2022/04/11 06:44:16;;;;;;;1.60;1.30;;;17.40;43.70;;;;;;4933838;28;45920;-60
2022/04/11 06:46:41;;;;;;;2.47;1.50;;;17.50;43.70;;;;;;4942386;28;45308;-59
2022/04/11 06:49:07;;;;;;;1.77;1.27;;;17.60;43.60;;;;;;4941866;28;45293;-58
2022/04/11 06:51:32;;;;;;;2.53;1.30;;;17.70;43.50;;;;;;4939487;28;44949;-62
2022/04/11 06:53:58;;;;;;;1.73;1.33;;;17.80;43.40;;;;;;4922031;28;45829;-60
2022/04/11 06:56:23;;;;;;;1.50;1.13;;;18.00;43.40;;;;;;4938787;28;45772;-59
2022/04/11 06:58:49;;;;;;;1.88;1.10;;;18.00;43.30;;;;;;4940446;28;45203;-60
2022/04/11 07:01:15;;;;;;;2.03;1.20;;;18.20;43.20;;;;;;4938406;28;45658;-60
2022/04/11 07:03:40;;;;;;;1.40;1.23;;;18.30;43.20;;;;;;4936809;28;47123;-59
2022/04/11 07:06:06;;;;;;;1.55;1.20;;;18.40;43.00;;;;;;4942456;28;45397;-59
2022/04/11 07:08:31;;;;;;;2.08;1.38;;;18.50;43.00;;;;;;4941205;28;44860;-60
2022/04/11 07:10:58;;;;;;;1.40;1.10;;;18.60;42.90;;;;;;4940385;28;45243;-62
2022/04/11 07:13:24;;;;;;;1.02;0.90;;;18.70;42.80;;;;;;4936944;28;46272;-61
2022/04/11 07:15:49;;;;;;;1.38;1.00;;;18.80;42.70;;;;;;4939869;28;45295;-62
2022/04/11 07:18:15;;;;;;;2.13;1.10;;;18.90;42.60;;;;;;4941781;28;45681;-60
2022/04/11 07:20:40;;;;;;;4.40;1.30;;;19.00;42.60;;;;;;4939612;28;45627;-60
2022/04/11 07:23:06;;;;;;;1.48;1.13;;;19.20;42.60;;;;;;4940072;28;45954;-60
2022/04/11 07:25:32;;;;;;;2.00;0.90;;;19.20;42.40;;;;;;4910569;28;45656;-61
2022/04/11 07:27:58;;;;;;;1.77;1.08;;;19.40;42.40;;;;;;4940964;28;45280;-60
2022/04/11 07:30:23;;;;;;;2.95;0.98;;;19.50;42.30;;;;;;4939339;28;45314;-60
2022/04/11 07:32:49;;;;;;;1.20;1.08;;;19.60;42.30;;;;;;4936601;28;46131;-60
2022/04/11 07:35:15;;;;;;;3.03;1.15;;;19.70;42.10;;;;;;4941820;28;44612;-59
2022/04/11 07:37:40;;;;;;;0.93;0.82;;;19.80;42.10;;;;;;4937713;28;45192;-61
2022/04/11 07:40:06;;;;;;;1.48;0.90;;;19.90;42.00;;;;;;4938309;28;45342;-60
2022/04/11 07:42:32;;;;;;;1.40;0.90;;;20.00;41.90;;;;;;4940768;28;46053;-60
2022/04/11 07:44:58;;;;;;;0.90;0.80;;;20.10;41.80;;;;;;4938749;28;45285;-61
2022/04/11 07:47:23;;;;;;;1.25;1.05;;;20.20;41.70;;;;;;4942888;28;45785;-59
2022/04/11 07:49:49;;;;;;;3.25;1.10;;;20.30;41.70;;;;;;4909864;28;45494;-60
2022/04/11 07:52:14;;;;;;;1.20;0.90;;;20.40;41.60;;;;;;4940988;28;46026;-61
2022/04/11 07:54:40;;;;;;;1.55;0.98;;;20.50;41.50;;;;;;4923177;28;46191;-60
2022/04/11 07:57:08;;;;;;;1.10;0.90;;;20.60;41.40;;;;;;4940911;28;45257;-62
2022/04/11 07:59:34;;;;;;;4.07;1.00;;;20.70;41.40;;;;;;4942529;28;45253;-61
2022/04/11 08:01:59;;;;;;;2.92;1.15;;;20.80;41.30;;;;;;4940999;28;45881;-59
2022/04/11 08:04:25;;;;;;;2.42;0.98;;;20.90;41.30;;;;;;4942169;28;45338;-61
2022/04/11 08:06:51;;;;;;;0.82;0.80;;;21.00;41.20;;;;;;4943505;28;45647;-61
2022/04/11 08:09:17;;;;;;;1.23;0.93;;;21.10;41.10;;;;;;4943593;28;44917;-60
2022/04/11 08:11:43;;;;;;;1.80;1.20;;;21.20;41.00;;;;;;4939095;28;45918;-61
2022/04/11 08:14:08;;;;;;;1.17;0.68;;;21.30;41.00;;;;;;4943116;28;44705;-58
2022/04/11 08:16:34;;;;;;;3.72;1.40;;;21.30;40.90;;;;;;4930274;28;44794;-58
2022/04/11 08:19:00;;;;;;;1.52;0.70;;;21.40;40.80;;;;;;4943138;28;45524;-58
2022/04/11 08:21:25;;;;;;;1.38;0.90;;;21.50;40.80;;;;;;4937878;28;47044;-60
2022/04/11 08:23:51;;;;;;;1.08;0.80;;;21.60;40.70;;;;;;4927458;28;45224;-59
2022/04/11 08:26:16;;;;;;;2.17;0.95;;;21.70;40.70;;;;;;4920925;28;45559;-61
2022/04/11 08:28:42;;;;;;;1.52;0.93;;;21.80;40.60;;;;;;4920383;28;44849;-61
2022/04/11 08:31:07;;;;;;;0.75;0.70;;;21.90;40.60;;;;;;4937644;28;45792;-59
2022/04/11 08:33:33;;;;;;;1.25;0.82;;;21.90;40.40;;;;;;4935858;28;45513;-61
2022/04/11 08:35:59;;;;;;;2.03;0.90;;;22.00;40.30;;;;;;4938421;28;45347;-61
2022/04/11 08:38:24;;;;;;;1.98;1.05;;;22.10;40.30;;;;;;4938399;28;45357;-60
2022/04/11 08:40:50;;;;;;;0.75;0.68;;;22.20;40.20;;;;;;4936268;28;46100;-62
2022/04/11 08:43:16;;;;;;;0.50;0.50;;;22.30;40.20;;;;;;4936556;28;45706;-61
2022/04/11 08:45:42;;;;;;;1.23;0.70;;;22.40;40.10;;;;;;4923995;28;45251;-61
2022/04/11 08:48:07;;;;;;;1.13;0.77;;;22.40;40.00;;;;;;4925590;28;45838;-61
2022/04/11 08:50:33;;;;;;;1.10;0.70;;;22.50;40.00;;;;;;4920217;28;45066;-59
2022/04/11 08:52:59;;;;;;;1.38;0.70;;;22.60;40.00;;;;;;4935676;28;45630;-60
2022/04/11 08:55:24;;;;;;;0.73;0.50;;;22.70;39.90;;;;;;4938792;28;45253;-60
2022/04/11 08:57:50;;;;;;;1.45;0.80;;;22.80;39.90;;;;;;4941275;28;45700;-60
2022/04/11 09:00:17;;;;;;;0.82;0.50;;;22.80;39.80;;;;;;4938742;28;45550;-60
2022/04/11 09:02:43;;;;;;;1.70;0.65;;;22.90;39.70;;;;;;4936864;28;44752;-57
2022/04/11 09:05:10;;;;;;;0.95;0.73;;;22.90;39.70;;;;;;4919893;28;45451;-59
2022/04/11 09:07:54;;;;;;;1.58;0.80;;;23.00;39.70;;;;;;4939619;28;45742;-58
2022/04/11 09:10:26;;;;;;;0.68;0.50;;;23.10;39.30;;;;;;4937291;28;46248;-59
2022/04/11 09:12:52;;;;;;;0.70;0.70;;;23.10;39.60;;;;;;4941038;28;45290;-62
2022/04/11 09:15:19;;;;;;;0.60;0.60;;;23.20;39.50;;;;;;4938256;28;45674;-62
2022/04/11 09:17:45;;;;;;;1.13;0.60;;;23.30;39.50;;;;;;4920884;28;44863;-60
2022/04/11 09:20:13;;;;;;;0.85;0.63;;;23.30;39.50;;;;;;4936082;28;46058;-61
2022/04/11 09:22:38;;;;;;;1.35;0.68;;;23.30;39.40;;;;;;4935893;28;45575;-61
2022/04/11 09:25:17;;;;;;;0.77;0.70;;;23.40;39.40;;;;;;4936809;28;45683;-61
2022/04/11 09:27:43;;;;;;;1.05;0.60;;;23.50;39.20;;;;;;4938759;28;45272;-60
2022/04/11 09:30:19;;;;;;;0.70;0.47;;;23.50;39.30;;;;;;4933793;28;46136;-62
2022/04/11 09:32:52;;;;;;;0.68;0.52;;;23.60;39.00;;;;;;4936369;28;45307;-60
2022/04/11 09:35:44;;;;;;;0.80;0.70;;;23.60;39.00;;;;;;4936429;28;45275;-63
2022/04/11 09:38:17;;;;;;;0.82;0.52;;;23.70;38.80;;;;;;4926357;28;45659;-62
2022/04/11 09:40:44;;;;;;;0.68;0.65;;;23.80;39.00;;;;;;4936679;28;45772;-58
2022/04/11 09:43:10;;;;;;;1.08;0.60;;;23.80;39.10;;;;;;4936975;28;45040;-59
2022/04/11 09:45:40;;;;;;;0.82;0.50;;;23.80;39.10;;;;;;4934481;28;45417;-61
2022/04/11 09:48:07;;;;;;;0.75;0.50;;;23.80;38.90;;;;;;4935680;28;44813;-62
2022/04/11 09:50:33;;;;;;;0.65;0.65;;;23.90;39.10;;;;;;4938088;28;47233;-61
2022/04/11 09:53:18;;;;;;;0.98;0.65;;;23.90;39.10;;;;;;4935549;28;45307;-56
2022/04/11 09:55:46;;;;;;;0.60;0.50;;;24.00;38.70;;;;;;4933748;28;45786;-59
2022/04/11 09:58:12;;;;;;;0.50;0.45;;;24.00;38.90;;;;;;4936276;28;45343;-56
2022/04/11 10:00:39;;;;;;;1.05;0.70;;;24.10;38.80;;;;;;4929440;28;45394;-60
2022/04/11 10:03:05;;;;;;;0.80;0.75;;;24.10;39.40;;;;;;4932616;28;45586;-59
2022/04/11 10:05:34;;;;;;;0.57;0.50;;;24.10;38.70;;;;;;4937253;28;45907;-59
2022/04/11 10:08:01;;;;;;;0.80;0.60;;;24.10;38.60;;;;;;4936612;28;44830;-59
2022/04/11 10:10:27;;;;;;;0.77;0.50;;;24.20;39.30;;;;;;4937940;28;45514;-59
2022/04/11 10:12:53;;;;;;;0.65;0.60;;;24.20;38.60;;;;;;4930419;28;46089;-59
2022/04/11 10:15:20;;;;;;;0.60;0.60;;;24.20;38.60;;;;;;4887189;28;45236;-58
2022/04/11 10:17:47;;;;;;;0.50;0.45;;;24.20;38.60;;;;;;4935191;28;46139;-59
2022/04/11 10:20:12;;;;;;;0.52;0.50;;;24.30;38.60;;;;;;4902529;28;47055;-58
2022/04/11 10:22:44;;;;;;;0.55;0.43;;;24.30;38.50;;;;;;4935568;28;45544;-59
2022/04/11 10:25:09;;;;;;;1.75;0.50;;;24.30;38.40;;;;;;4921203;28;46253;-58
2022/04/11 10:27:37;;;;;;;0.73;0.52;;;24.40;38.50;;;;;;4911408;28;45365;-58
2022/04/11 10:30:04;;;;;;;0.93;0.60;;;24.40;38.40;;;;;;4918443;28;46089;-60
2022/04/11 10:32:30;;;;;;;1.50;0.60;;;24.40;38.40;;;;;;4912053;28;46804;-59
2022/04/11 10:35:08;;;;;;;0.80;0.52;;;24.40;38.40;;;;;;4908940;28;45731;-57
2022/04/11 10:37:39;;;;;;;0.45;0.45;;;24.40;38.30;;;;;;4930850;28;45692;-59
2022/04/11 10:40:17;;;;;;;0.45;0.40;;;24.50;38.20;;;;;;4929241;28;46173;-59
2022/04/11 10:43:05;;;;;;;0.43;0.43;;;24.50;38.00;;;;;;4932570;28;45548;-59
2022/04/11 10:45:34;;;;;;;2.58;0.50;;;24.50;37.90;;;;;;4921218;28;46163;-60
2022/04/11 10:48:00;;;;;;;0.93;0.50;;;24.50;38.30;;;;;;4932558;28;45677;-59
2022/04/11 10:50:42;;;;;;;0.30;0.30;;;24.50;38.20;;;;;;4935904;28;47165;-60
2022/04/11 10:53:23;;;;;;;0.60;0.55;;;24.50;37.60;;;;;;4933742;28;45092;-58
2022/04/11 10:56:05;;;;;;;0.55;0.45;;;24.50;38.10;;;;;;4935017;28;45482;-59
2022/04/11 10:58:50;;;;;;;1.08;0.50;;;24.40;37.80;;;;;;4924164;28;45717;-64
2022/04/11 11:01:49;;;;;;;0.70;0.50;;;24.30;37.80;;;;;;4927294;28;46339;-57
2022/04/11 11:04:18;;;;;;;0.55;0.50;;;24.30;38.00;;;;;;4933959;28;45001;-61
2022/04/11 11:06:44;;;;;;;1.38;0.52;;;24.20;38.40;;;;;;4939246;28;44758;-61
2022/04/11 11:09:16;;;;;;;0.60;0.40;;;24.20;38.60;;;;;;4937087;28;45339;-61
2022/04/11 11:11:42;;;;;;;0.47;0.40;;;24.10;38.50;;;;;;4933611;28;46036;-61
2022/04/11 11:14:09;;;;;;;0.57;0.50;;;24.00;38.80;;;;;;4937194;28;45736;-66
2022/04/11 11:16:35;;;;;;;0.50;0.35;;;23.90;38.90;;;;;;4935978;28;45358;-61
2022/04/11 11:19:01;;;;;;;0.57;0.57;;;23.90;39.00;;;;;;4939038;28;45801;-61
2022/04/11 11:21:33;;;;;;;0.55;0.55;;;23.90;39.10;;;;;;4940126;28;46223;-60
2022/04/11 11:24:04;;;;;;;0.95;0.70;;;23.80;39.10;;;;;;4942123;28;45292;-59
2022/04/11 11:26:57;;;;;;;0.80;0.40;;;23.80;39.10;;;;;;4943050;28;45073;-60
2022/04/11 11:29:30;;;;;;;0.40;0.40;;;23.70;39.10;;;;;;4937673;28;44948;-61
2022/04/11 11:31:58;;;;;;;0.77;0.55;;;23.70;39.30;;;;;;4918628;28;46024;-61
2022/04/11 11:34:27;;;;;;;0.73;0.55;;;23.60;39.50;;;;;;4935472;28;44922;-61
2022/04/11 11:36:57;;;;;;;0.70;0.65;;;23.50;39.60;;;;;;4939186;28;45846;-61
2022/04/11 11:39:24;;;;;;;0.50;0.50;;;23.50;39.60;;;;;;4936658;28;44879;-59
2022/04/11 11:41:50;;;;;;;0.63;0.50;;;23.50;39.70;;;;;;4919402;28;44922;-62
2022/04/11 11:44:16;;;;;;;0.40;0.40;;;23.40;39.70;;;;;;4937862;28;44890;-60
2022/04/11 11:46:56;;;;;;;0.55;0.47;;;23.40;39.80;;;;;;4936036;28;44877;-62
2022/04/11 11:49:22;;;;;;;0.80;0.43;;;23.30;39.70;;;;;;4936524;28;45394;-58
2022/04/11 11:51:48;;;;;;;0.68;0.50;;;23.30;39.90;;;;;;4936945;28;46033;-61
2022/04/11 11:54:14;;;;;;;1.00;0.60;;;23.30;39.90;;;;;;4920193;28;45405;-61
2022/04/11 11:56:41;;;;;;;0.77;0.45;;;23.30;39.90;;;;;;4937320;28;45074;-59
2022/04/11 11:59:07;;;;;;;0.90;0.50;;;23.20;40.00;;;;;;4937831;28;45375;-59
2022/04/11 12:01:35;;;;;;;2.60;0.50;;;23.20;40.10;;;;;;4933361;28;46109;-66
2022/04/11 12:04:19;;;;;;;0.88;0.60;;;23.10;40.10;;;;;;4936069;28;45470;-59
2022/04/11 12:06:45;;;;;;;0.68;0.52;;;23.10;40.10;;;;;;4926293;28;44721;-60
2022/04/11 12:09:11;;;;;;;0.82;0.50;;;23.10;40.20;;;;;;4933104;28;44886;-62
2022/04/11 12:11:37;;;;;;;0.60;0.50;;;23.00;40.20;;;;;;4949017;28;46275;-58
2022/04/11 12:14:04;;;;;;;0.63;0.40;;;23.00;40.30;;;;;;4926201;28;45484;-61
2022/04/11 12:16:31;;;;;;;0.50;0.40;;;23.00;40.40;;;;;;4937396;28;46162;-63
2022/04/11 12:18:58;;;;;;;0.57;0.50;;;22.90;40.40;;;;;;4923167;28;44730;-62
2022/04/11 12:21:37;;;;;;;0.50;0.40;;;22.90;40.50;;;;;;4936230;28;45989;-62
2022/04/11 12:24:04;;;;;;;0.70;0.60;;;22.90;40.60;;;;;;4936676;28;45683;-65
2022/04/11 12:26:32;;;;;;;0.60;0.38;;;22.80;40.60;;;;;;4936635;28;45604;-62
2022/04/11 12:29:00;;;;;;;0.60;0.50;;;22.80;40.70;;;;;;4935818;28;44685;-62
2022/04/11 12:31:26;;;;;;;0.55;0.50;;;22.80;40.70;;;;;;4935236;28;46101;-61
2022/04/11 12:33:53;;;;;;;2.92;0.55;;;22.70;40.70;;;;;;4920933;28;45509;-60
2022/04/11 12:36:22;;;;;;;0.45;0.35;;;22.70;40.80;;;;;;4933666;28;44782;-60
2022/04/11 12:38:54;;;;;;;0.73;0.60;;;22.70;40.90;;;;;;4935870;28;44791;-58
2022/04/11 12:41:23;;;;;;;0.88;0.50;;;22.60;40.90;;;;;;4921375;28;46315;-61
2022/04/11 12:44:01;;;;;;;1.23;0.60;;;22.60;41.00;;;;;;4934599;28;45298;-61
2022/04/11 12:46:26;;;;;;;1.63;0.68;;;22.60;41.00;;;;;;4937247;28;45601;-63
2022/04/11 12:48:58;;;;;;;0.95;0.50;;;22.50;41.00;;;;;;4938191;28;45499;-62
2022/04/11 12:51:24;;;;;;;1.20;0.50;;;22.50;41.10;;;;;;4935516;28;46605;-61
2022/04/11 12:53:50;;;;;;;2.75;0.70;;;22.50;41.10;;;;;;4935977;28;45227;-61
2022/04/11 12:56:15;;;;;;;0.70;0.50;;;22.50;41.20;;;;;;4935271;28;45343;-60
2022/04/11 12:58:41;;;;;;;0.60;0.50;;;22.40;41.10;;;;;;4936001;28;44829;-62
2022/04/11 13:01:06;;;;;;;0.60;0.50;;;22.40;41.20;;;;;;4936557;28;45953;-62
2022/04/11 13:03:32;;;;;;;0.50;0.50;;;22.40;41.20;;;;;;4905833;28;44744;-61
2022/04/11 13:05:59;;;;;;;0.95;0.50;;;22.40;41.30;;;;;;4936467;28;45345;-59
2022/04/11 13:08:25;;;;;;;0.40;0.40;;;22.40;41.40;;;;;;4936493;28;45670;-58
2022/04/11 13:10:51;;;;;;;0.73;0.50;;;22.40;41.50;;;;;;4932459;28;45977;-60
2022/04/11 13:13:17;;;;;;;0.70;0.50;;;22.30;41.50;;;;;;4935211;28;45135;-61
2022/04/11 13:18:27;;;;;;;0.60;0.40;;;22.30;41.50;;;;;;4934798;28;45976;-60
2022/04/11 13:20:53;;;;;;;1.33;0.50;;;22.20;41.50;;;;;;4920114;28;46552;-58
2022/04/11 13:23:19;;;;;;;0.70;0.50;;;22.20;41.60;;;;;;4934937;28;45331;-61
2022/04/11 13:25:44;;;;;;;0.60;0.40;;;22.20;41.70;;;;;;4936250;28;45561;-60
2022/04/11 13:28:10;;;;;;;0.40;0.40;;;22.20;41.70;;;;;;4937035;28;44909;-62
2022/04/11 13:30:36;;;;;;;0.30;0.30;;;22.10;41.70;;;;;;4934616;28;46281;-61
2022/04/11 13:33:01;;;;;;;0.68;0.50;;;22.10;41.80;;;;;;4936761;28;45758;-60
2022/04/11 13:35:27;;;;;;;0.73;0.40;;;22.10;41.80;;;;;;4921901;28;45743;-62
2022/04/11 13:37:52;;;;;;;1.23;0.50;;;22.10;41.80;;;;;;4917421;28;45483;-65
2022/04/11 13:40:18;;;;;;;0.60;0.50;;;22.10;41.90;;;;;;4935742;28;46065;-59
2022/04/11 13:42:43;;;;;;;0.40;0.40;;;22.10;41.90;;;;;;4935546;28;46140;-61
2022/04/11 13:45:10;;;;;;;2.80;0.50;;;22.00;41.90;;;;;;4935043;28;45556;-63
2022/04/11 13:47:35;;;;;;;0.50;0.50;;;22.00;42.00;;;;;;4937618;28;44755;-61
2022/04/11 13:50:01;;;;;;;0.70;0.60;;;22.00;42.00;;;;;;4934209;28;45843;-61
2022/04/11 13:52:26;;;;;;;0.70;0.50;;;22.00;42.10;;;;;;4933869;28;44741;-60
2022/04/11 13:54:52;;;;;;;0.73;0.60;;;21.90;42.00;;;;;;4919716;28;45761;-60
2022/04/11 13:57:19;;;;;;;0.63;0.47;;;21.90;42.10;;;;;;4933838;28;46457;-61
2022/04/11 13:59:44;;;;;;;0.60;0.47;;;21.90;42.10;;;;;;4936611;28;45969;-62
2022/04/11 14:02:10;;;;;;;0.50;0.50;;;21.90;42.10;;;;;;4936355;28;45722;-59
2022/04/11 14:04:36;;;;;;;0.73;0.50;;;21.90;42.20;;;;;;4934820;28;45039;-60
2022/04/11 14:07:02;;;;;;;0.70;0.40;;;21.90;42.20;;;;;;4933376;28;45523;-60
2022/04/11 14:09:27;;;;;;;0.68;0.40;;;21.90;42.30;;;;;;4935900;28;46091;-60
2022/04/11 14:11:53;;;;;;;1.58;0.52;;;21.80;42.20;;;;;;4935155;28;45798;-61
2022/04/11 14:14:18;;;;;;;1.52;0.60;;;21.80;42.30;;;;;;4935691;28;45555;-60
2022/04/11 14:16:44;;;;;;;0.75;0.60;;;21.80;42.90;;;;;;4934398;28;45475;-59
2022/04/11 14:19:10;;;;;;;0.65;0.57;;;21.80;42.30;;;;;;4935773;28;45974;-62
2022/04/11 14:21:35;;;;;;;1.30;0.60;;;21.80;42.30;;;;;;4935439;28;46262;-61
2022/04/11 14:24:01;;;;;;;1.20;0.50;;;21.70;42.40;;;;;;4936486;28;45603;-60
2022/04/11 14:26:26;;;;;;;0.45;0.40;;;21.70;42.40;;;;;;4932141;28;45510;-62
2022/04/11 14:28:52;;;;;;;1.05;0.55;;;21.80;42.50;;;;;;4933899;28;46032;-63
2022/04/11 14:31:18;;;;;;;0.80;0.50;;;21.70;42.40;;;;;;4934815;28;44921;-62
2022/04/11 14:33:43;;;;;;;0.30;0.30;;;21.70;42.40;;;;;;4935787;28;45360;-61
2022/04/11 14:36:09;;;;;;;0.68;0.47;;;21.70;42.40;;;;;;4932759;28;45319;-61
2022/04/11 14:38:37;;;;;;;0.80;0.65;;;21.70;42.50;;;;;;4935185;28;45966;-58
2022/04/11 14:41:03;;;;;;;0.80;0.50;;;21.70;42.50;;;;;;4918242;28;44883;-62
2022/04/11 14:43:28;;;;;;;0.32;0.32;;;21.60;42.50;;;;;;4936642;28;45047;-60
2022/04/11 14:45:54;;;;;;;0.68;0.40;;;21.70;42.60;;;;;;4919235;28;45700;-61
2022/04/11 14:48:20;;;;;;;1.70;0.45;;;21.60;42.60;;;;;;4936926;28;45995;-60
2022/04/11 14:50:45;;;;;;;0.80;0.50;;;21.60;42.70;;;;;;4938276;28;45304;-61
2022/04/11 14:53:11;;;;;;;0.70;0.57;;;21.60;42.70;;;;;;4938280;28;45478;-59
2022/04/11 14:55:39;;;;;;;0.55;0.50;;;21.60;42.70;;;;;;4922358;28;45720;-61
2022/04/11 14:58:06;;;;;;;0.77;0.55;;;21.60;42.80;;;;;;4922111;28;45497;-60
2022/04/11 15:00:32;;;;;;;0.68;0.47;;;21.50;42.80;;;;;;4934918;28;45624;-59
2022/04/11 15:02:57;;;;;;;0.40;0.40;;;21.50;42.90;;;;;;4934828;28;45892;-59
2022/04/11 15:05:23;;;;;;;0.52;0.40;;;21.50;43.00;;;;;;4932415;28;45654;-58
2022/04/11 15:07:49;;;;;;;0.95;0.60;;;21.40;43.00;;;;;;4936140;28;46351;-59
2022/04/11 15:10:18;;;;;;;0.45;0.40;;;21.40;43.10;;;;;;4936431;28;44788;-58
2022/04/11 15:12:44;;;;;;;0.82;0.40;;;21.30;43.10;;;;;;4935065;28;45643;-59
2022/04/11 15:15:10;;;;;;;0.60;0.60;;;21.30;43.20;;;;;;4936571;28;45343;-59
2022/04/11 15:17:36;;;;;;;0.45;0.32;;;21.30;43.20;;;;;;4936132;28;46726;-60
2022/04/11 15:20:02;;;;;;;0.88;0.50;;;21.20;43.20;;;;;;4934868;28;45160;-58
2022/04/11 15:22:28;;;;;;;1.30;0.55;;;21.20;43.20;;;;;;4934767;28;45074;-58
2022/04/11 15:24:59;;;;;;;0.77;0.57;;;21.20;43.30;;;;;;4933195;28;45062;-59
2022/04/11 15:27:24;;;;;;;0.38;0.38;;;21.20;43.30;;;;;;4935232;28;45951;-59
2022/04/11 15:29:50;;;;;;;1.70;0.57;;;21.20;43.40;;;;;;4934792;28;45869;-59
2022/04/11 15:32:15;;;;;;;0.50;0.40;;;21.10;43.40;;;;;;4933382;28;44707;-59
2022/04/11 15:34:42;;;;;;;0.63;0.50;;;21.10;43.40;;;;;;4918640;28;46571;-57
2022/04/11 15:37:07;;;;;;;0.50;0.50;;;21.10;43.50;;;;;;4928299;28;46103;-58
2022/04/11 15:39:33;;;;;;;0.50;0.50;;;21.00;43.40;;;;;;4940822;28;45794;-58
2022/04/11 15:41:59;;;;;;;0.52;0.40;;;21.10;43.60;;;;;;4939916;28;45845;-58
2022/04/11 15:44:26;;;;;;;1.00;0.40;;;21.00;43.50;;;;;;4933468;28;45614;-61
2022/04/11 15:46:51;;;;;;;0.75;0.50;;;21.00;43.50;;;;;;4904263;28;45696;-57
2022/04/11 15:49:17;;;;;;;0.60;0.60;;;21.00;43.50;;;;;;4934810;28;45658;-59